Time;durP1;ratioP1;P1;durP2;ratioP2;P2;SDS_P1;SDS_P2;PMS_P1;PMS_P2;Temp;Humidity;BMP_temperature;BMP_pressure;BME280_temperature;BME280_humidity;BME280_pressure;Samples;Min_cycle;Max_cycle;Signal;HPM_P1;HPM_P2
2021/09/17 00:00:12;;;;;;;;;21.00;19.50;;;;;16.90;70.51;101698.22;4924210;28;45508;-87
2021/09/17 00:02:37;;;;;;;;;18.50;16.25;;;;;16.85;70.70;101694.91;4927653;28;45474;-87
2021/09/17 00:05:04;;;;;;;;;19.25;17.50;;;;;16.83;70.82;101697.66;4930951;28;45344;-87
2021/09/17 00:07:30;;;;;;;;;21.00;20.50;;;;;16.84;70.63;101694.03;4911058;28;45316;-81
2021/09/17 00:09:55;;;;;;;;;21.75;19.00;;;;;16.82;70.75;101687.94;4923473;28;45252;-81
2021/09/17 00:12:20;;;;;;;;;21.25;19.50;;;;;16.82;71.03;101690.59;4925333;28;45366;-86
2021/09/17 00:14:46;;;;;;;;;18.50;18.50;;;;;16.81;70.89;101690.66;4923445;28;46296;-81
2021/09/17 00:17:11;;;;;;;;;19.25;18.75;;;;;16.81;70.86;101683.56;4926031;28;45290;-84
2021/09/17 00:19:37;;;;;;;;;18.50;18.00;;;;;16.79;71.17;101682.75;4929774;28;45271;-87
2021/09/17 00:22:03;;;;;;;;;22.00;19.50;;;;;16.74;70.88;101667.03;4938725;28;45367;-86
2021/09/17 00:24:28;;;;;;;;;18.50;17.75;;;;;16.79;70.62;101682.75;4937743;28;46503;-94
2021/09/17 00:26:54;;;;;;;;;21.00;18.25;;;;;16.76;71.01;101674.94;4935944;28;45498;-94
2021/09/17 00:29:19;;;;;;;;;18.75;18.00;;;;;16.72;71.06;101668.91;4924670;28;45475;-95
2021/09/17 00:31:44;;;;;;;;;20.25;19.25;;;;;16.71;70.71;101674.28;4928416;28;47629;-88
2021/09/17 00:34:10;;;;;;;;;20.00;19.25;;;;;16.68;71.10;101674.41;4922945;28;46371;-87
2021/09/17 00:36:35;;;;;;;;;18.75;17.25;;;;;16.67;70.64;101675.38;4923417;28;45393;-87
2021/09/17 00:39:02;;;;;;;;;20.25;17.75;;;;;16.64;70.84;101669.25;4934771;28;45314;-87
2021/09/17 00:41:28;;;;;;;;;21.25;18.25;;;;;16.64;71.06;101674.53;4905998;28;46044;-87
2021/09/17 00:43:53;;;;;;;;;20.00;19.00;;;;;16.61;71.32;101672.03;4923526;28;45397;-87
2021/09/17 00:46:19;;;;;;;;;18.25;18.00;;;;;16.58;71.06;101666.88;4923247;28;45244;-86
2021/09/17 00:48:44;;;;;;;;;23.25;18.75;;;;;16.59;71.39;101668.59;4934719;28;45285;-87
2021/09/17 00:51:10;;;;;;;;;18.00;18.00;;;;;16.57;71.25;101657.16;4928726;28;45236;-87
2021/09/17 00:53:36;;;;;;;;;19.75;19.25;;;;;16.60;71.15;101670.31;4906029;28;46171;-88
2021/09/17 00:56:03;;;;;;;;;18.50;18.00;;;;;16.59;71.06;101660.63;4922794;28;45286;-88
2021/09/17 00:58:29;;;;;;;;;21.50;20.00;;;;;16.61;70.89;101661.44;4922660;28;45227;-81
2021/09/17 01:00:54;;;;;;;;;19.00;17.00;;;;;16.58;71.41;101647.41;4925191;28;45493;-87
2021/09/17 01:03:20;;;;;;;;;17.00;17.00;;;;;16.57;71.45;101645.72;4912981;28;46520;-84
2021/09/17 01:05:45;;;;;;;;;21.50;19.00;;;;;16.53;71.54;101643.19;4936761;28;45385;-87
2021/09/17 01:08:11;;;;;;;;;19.50;17.75;;;;;16.49;70.97;101638.09;4942501;28;45444;-87
2021/09/17 01:10:36;;;;;;;;;20.00;18.50;;;;;16.50;70.96;101645.09;4931283;28;45429;-92
2021/09/17 01:13:02;;;;;;;;;14.25;14.25;;;;;16.48;71.57;101641.66;4934132;28;46493;-87
2021/09/17 01:15:28;;;;;;;;;20.75;18.00;;;;;16.45;71.32;101631.16;4923519;28;45444;-87
2021/09/17 01:17:53;;;;;;;;;17.75;17.75;;;;;16.47;71.18;101640.78;4922797;28;45333;-87
2021/09/17 01:20:20;;;;;;;;;19.50;16.75;;;;;16.44;71.54;101640.06;4924062;28;45493;-87
2021/09/17 01:22:47;;;;;;;;;15.75;14.00;;;;;16.46;71.37;101641.72;4941559;28;46180;-87
2021/09/17 01:25:16;;;;;;;;;17.00;14.25;;;;;16.40;71.64;101634.03;4930196;28;45239;-88
2021/09/17 01:27:43;;;;;;;;;16.25;14.50;;;;;16.38;71.54;101625.28;4922834;28;45405;-89
2021/09/17 01:30:09;;;;;;;;;24.00;20.25;;;;;16.38;71.48;101623.50;4923405;28;45714;-85
2021/09/17 01:32:35;;;;;;;;;21.00;19.25;;;;;16.38;71.04;101623.50;4922173;28;45575;-83
2021/09/17 01:35:00;;;;;;;;;22.00;17.00;;;;;16.35;71.59;101620.97;4922718;28;45358;-83
2021/09/17 01:37:26;;;;;;;;;19.25;17.00;;;;;16.33;71.31;101612.22;4922568;28;45523;-83
2021/09/17 01:39:51;;;;;;;;;19.00;19.00;;;;;16.33;71.71;101614.88;4922503;28;45558;-83
2021/09/17 01:42:17;;;;;;;;;22.00;16.75;;;;;16.35;71.69;101618.31;4925497;28;45233;-83
2021/09/17 01:44:42;;;;;;;;;20.00;18.25;;;;;16.31;71.60;101614.94;4922551;28;45216;-83
2021/09/17 01:47:08;;;;;;;;;19.75;17.50;;;;;16.26;71.71;101606.31;4922846;28;45489;-83
2021/09/17 01:49:34;;;;;;;;;15.00;15.00;;;;;16.33;71.76;101616.66;4922409;28;45549;-86
2021/09/17 01:52:00;;;;;;;;;21.00;18.00;;;;;16.30;71.50;101607.03;4936077;28;45532;-80
2021/09/17 01:54:26;;;;;;;;;17.75;15.75;;;;;16.24;71.74;101599.34;4931080;28;45417;-87
2021/09/17 01:56:52;;;;;;;;;14.75;14.50;;;;;16.24;71.44;101604.66;4915223;28;45394;-87
2021/09/17 01:59:18;;;;;;;;;13.00;12.75;;;;;16.24;71.66;101600.22;4921928;28;45523;-86
2021/09/17 02:01:44;;;;;;;;;18.25;17.75;;;;;16.24;71.81;101602.88;4925016;28;45306;-83
2021/09/17 02:04:09;;;;;;;;;19.00;18.50;;;;;16.20;71.62;101588.00;4922064;28;45256;-83
2021/09/17 02:06:34;;;;;;;;;16.50;14.50;;;;;16.22;71.44;101595.91;4905175;28;45226;-85
2021/09/17 02:09:01;;;;;;;;;19.50;17.50;;;;;16.19;71.56;101592.47;4921562;28;45629;-85
2021/09/17 02:11:27;;;;;;;;;17.75;16.50;;;;;16.16;71.72;101597.03;4931840;28;46605;-85
2021/09/17 02:13:52;;;;;;;;;16.50;15.50;;;;;16.15;71.97;101588.22;4939334;28;45232;-85
2021/09/17 02:16:18;;;;;;;;;14.00;13.50;;;;;16.16;72.00;101587.28;4927711;28;46028;-85
2021/09/17 02:18:43;;;;;;;;;18.25;17.00;;;;;16.14;72.01;101589.16;4922607;28;45417;-85
2021/09/17 02:21:09;;;;;;;;;17.75;16.00;;;;;16.13;71.92;101584.75;4940752;28;46448;-85
2021/09/17 02:23:34;;;;;;;;;16.25;16.25;;;;;16.12;71.75;101579.53;4941273;28;45378;-86
2021/09/17 02:25:59;;;;;;;;;16.50;16.50;;;;;16.10;71.92;101576.09;4923332;28;45357;-85
2021/09/17 02:28:25;;;;;;;;;18.00;17.50;;;;;16.11;72.06;101586.63;4919993;28;46960;-86
2021/09/17 02:30:50;;;;;;;;;13.25;13.00;;;;;16.08;72.05;101577.00;4921568;28;45385;-86
2021/09/17 02:33:15;;;;;;;;;5.75;4.75;;;;;16.06;71.90;101573.56;4933221;28;45693;-86
2021/09/17 02:35:42;;;;;;;;;18.00;17.00;;;;;16.05;71.87;101574.47;4929157;28;45433;-86
2021/09/17 02:38:07;;;;;;;;;19.50;18.00;;;;;16.07;71.87;101579.75;4932880;28;45480;-86
2021/09/17 02:40:33;;;;;;;;;20.50;19.00;;;;;16.03;71.79;101583.41;4912520;28;47330;-86
2021/09/17 02:43:00;;;;;;;;;18.75;15.00;;;;;16.03;71.82;101578.09;4923946;28;45406;-86
2021/09/17 02:45:25;;;;;;;;;17.25;14.50;;;;;16.06;71.82;101584.16;4925246;28;45339;-86
2021/09/17 02:47:51;;;;;;;;;15.25;13.50;;;;;15.98;71.92;101570.34;4930077;28;45413;-86
2021/09/17 02:50:16;;;;;;;;;16.50;15.25;;;;;16.05;72.04;101581.59;4928120;28;45533;-86
2021/09/17 02:52:42;;;;;;;;;20.25;18.75;;;;;15.98;71.91;101571.22;4925158;28;45317;-86
2021/09/17 02:55:09;;;;;;;;;18.25;17.25;;;;;15.97;72.23;101565.97;4924825;28;45360;-86
2021/09/17 02:57:39;;;;;;;;;16.25;16.25;;;;;16.02;71.68;101576.38;4928029;28;45584;-80
2021/09/17 03:00:09;;;;;;;;;19.50;17.50;;;;;15.95;71.85;101562.53;4925581;28;45237;-84
2021/09/17 03:02:34;;;;;;;;;20.25;19.25;;;;;15.95;71.90;101571.31;4923503;28;45376;-84
2021/09/17 03:05:00;;;;;;;;;17.25;16.25;;;;;15.98;72.01;101571.22;4930099;28;45397;-84
2021/09/17 03:07:26;;;;;;;;;18.50;16.75;;;;;15.95;72.14;101562.53;4943948;28;45414;-84
2021/09/17 03:09:51;;;;;;;;;18.00;18.00;;;;;15.95;71.93;101563.38;4935056;28;46832;-84
2021/09/17 03:12:16;;;;;;;;;18.75;16.25;;;;;15.89;72.16;101550.41;4924769;28;45438;-84
2021/09/17 03:14:42;;;;;;;;;16.75;13.25;;;;;15.86;72.02;101553.16;4913100;28;45428;-84
2021/09/17 03:17:08;;;;;;;;;19.50;16.25;;;;;15.84;72.03;101545.28;4925621;28;45513;-83
2021/09/17 03:19:34;;;;;;;;;15.75;14.50;;;;;15.81;72.08;101542.75;4936766;28;45498;-83
2021/09/17 03:22:00;;;;;;;;;14.00;13.00;;;;;15.80;71.93;101543.72;4943726;28;45275;-87
2021/09/17 03:24:27;;;;;;;;;19.50;16.50;;;;;15.84;72.30;101553.25;4928170;28;45471;-87
2021/09/17 03:26:53;;;;;;;;;20.00;18.50;;;;;15.77;71.81;101543.84;4907080;28;47159;-87
2021/09/17 03:29:19;;;;;;;;;18.50;15.50;;;;;15.75;72.08;101541.22;4941924;28;46108;-82
2021/09/17 03:31:44;;;;;;;;;16.50;16.50;;;;;15.71;72.25;101537.00;4926127;28;45446;-82
2021/09/17 03:34:09;;;;;;;;;20.50;16.75;;;;;15.70;72.22;101535.28;4931391;28;45319;-82
2021/09/17 03:36:42;;;;;;;;;16.50;16.50;;;;;15.70;72.27;101527.34;4924307;28;45578;-83
2021/09/17 03:39:07;;;;;;;;;18.75;18.75;;;;;15.72;72.30;101536.06;4923755;28;45647;-83
2021/09/17 03:41:33;;;;;;;;;21.50;17.25;;;;;15.69;72.10;101530.91;4907252;28;45201;-83
2021/09/17 03:44:12;;;;;;;;;18.50;17.00;;;;;15.71;72.48;101539.63;4933764;28;45651;-83
2021/09/17 03:46:38;;;;;;;;;20.50;17.50;;;;;15.72;72.42;101543.16;4938740;28;45428;-82
2021/09/17 03:49:04;;;;;;;;;18.50;17.75;;;;;15.68;72.37;101542.41;4924298;28;46468;-82
2021/09/17 03:51:29;;;;;;;;;23.00;19.25;;;;;15.60;72.54;101528.63;4923659;28;45222;-82
2021/09/17 03:53:54;;;;;;;;;16.50;16.50;;;;;15.58;72.33;101535.78;4931409;28;45211;-82
2021/09/17 03:56:20;;;;;;;;;21.50;19.00;;;;;15.58;72.34;101541.09;4924143;28;45488;-82
2021/09/17 03:58:46;;;;;;;;;20.25;19.00;;;;;15.58;72.51;101539.28;4923857;28;46555;-82
2021/09/17 04:01:11;;;;;;;;;21.50;18.50;;;;;15.52;72.67;101535.13;4934409;28;45274;-82
2021/09/17 04:03:37;;;;;;;;;21.50;17.50;;;;;15.56;72.49;101534.97;4922517;28;45496;-82
2021/09/17 04:06:02;;;;;;;;;20.50;17.25;;;;;15.52;72.41;101529.81;4922132;28;45244;-82
2021/09/17 04:08:27;;;;;;;;;19.00;17.50;;;;;15.53;72.49;101542.13;4906789;28;46222;-82
2021/09/17 04:10:53;;;;;;;;;20.25;18.25;;;;;15.52;72.39;101531.59;4924497;28;45416;-82
2021/09/17 04:13:18;;;;;;;;;23.25;19.75;;;;;15.53;72.66;101533.34;4924168;28;45149;-82
2021/09/17 04:15:44;;;;;;;;;17.75;16.75;;;;;15.49;72.38;101535.25;4923824;28;45279;-82
2021/09/17 04:18:09;;;;;;;;;20.75;18.75;;;;;15.49;72.41;101543.19;4923290;28;46235;-82
2021/09/17 04:20:35;;;;;;;;;19.75;18.00;;;;;15.43;72.40;101543.44;4925656;28;45380;-82
2021/09/17 04:23:00;;;;;;;;;17.50;16.25;;;;;15.45;72.66;101544.25;4942455;28;45393;-82
2021/09/17 04:25:27;;;;;;;;;17.75;17.00;;;;;15.43;72.70;101540.81;4929441;28;45653;-83
2021/09/17 04:27:52;;;;;;;;;18.25;18.25;;;;;15.38;72.95;101532.19;4924753;28;46209;-83
2021/09/17 04:30:18;;;;;;;;;18.00;17.00;;;;;15.39;72.56;101544.47;4923597;28;45400;-83
2021/09/17 04:32:45;;;;;;;;;23.00;20.00;;;;;15.38;72.74;101538.31;4923463;28;45401;-83
2021/09/17 04:35:11;;;;;;;;;17.75;17.50;;;;;15.37;72.57;101539.25;4925568;28;45207;-82
2021/09/17 04:37:42;;;;;;;;;17.00;16.00;;;;;15.35;72.45;101538.47;4925842;28;46403;-83
2021/09/17 04:40:09;;;;;;;;;22.00;19.50;;;;;15.34;72.49;101534.06;4931639;28;45426;-83
2021/09/17 04:42:35;;;;;;;;;17.75;17.75;;;;;15.36;72.71;101545.47;4923555;28;45252;-83
2021/09/17 04:45:00;;;;;;;;;17.50;17.25;;;;;15.36;72.90;101544.63;4923552;28;45415;-83
2021/09/17 04:47:26;;;;;;;;;21.50;18.50;;;;;15.39;72.63;101544.47;4923807;28;45457;-81
2021/09/17 04:49:52;;;;;;;;;16.50;16.50;;;;;15.36;72.80;101539.31;4925810;28;45215;-86
2021/09/17 04:52:18;;;;;;;;;18.50;17.25;;;;;15.35;72.77;101537.59;4923069;28;45234;-87
2021/09/17 04:54:44;;;;;;;;;15.25;15.25;;;;;15.34;72.86;101538.50;4923101;28;45270;-86
2021/09/17 04:57:09;;;;;;;;;18.50;17.25;;;;;15.38;72.77;101540.13;4920215;28;48247;-85
2021/09/17 04:59:34;;;;;;;;;19.00;18.25;;;;;15.30;72.92;101536.00;4928157;28;45406;-85
2021/09/17 05:02:00;;;;;;;;;16.00;16.00;;;;;15.31;72.78;101534.19;4920797;28;45382;-87
2021/09/17 05:04:25;;;;;;;;;22.00;19.25;;;;;15.34;72.58;101535.84;4923286;28;45346;-86
2021/09/17 05:06:50;;;;;;;;;20.00;19.00;;;;;15.33;72.83;101536.78;4935197;28;46592;-86
2021/09/17 05:09:16;;;;;;;;;17.75;17.75;;;;;15.29;72.63;101533.41;4937971;28;45376;-86
2021/09/17 05:11:41;;;;;;;;;17.50;17.50;;;;;15.26;72.72;101534.38;4923358;28;45732;-86
2021/09/17 05:14:06;;;;;;;;;18.25;17.50;;;;;15.28;72.93;101543.13;4923882;28;45461;-87
2021/09/17 05:16:32;;;;;;;;;18.25;15.00;;;;;15.26;72.87;101534.38;4922904;28;45476;-87
2021/09/17 05:18:59;;;;;;;;;16.75;15.50;;;;;15.26;73.19;101537.03;4922468;28;45244;-87
2021/09/17 05:21:25;;;;;;;;;18.75;17.25;;;;;15.28;73.11;101535.19;4921766;28;45256;-87
2021/09/17 05:23:50;;;;;;;;;18.25;17.25;;;;;15.27;73.17;101541.41;4930745;28;45275;-87
2021/09/17 05:26:16;;;;;;;;;18.00;17.75;;;;;15.33;73.03;101545.59;4922842;28;45514;-87
2021/09/17 05:28:41;;;;;;;;;16.00;16.00;;;;;15.32;73.01;101537.72;4922884;28;45233;-87
2021/09/17 05:31:06;;;;;;;;;16.50;15.25;;;;;15.33;73.24;101536.78;4921556;28;45458;-86
2021/09/17 05:33:32;;;;;;;;;16.25;13.50;;;;;15.36;73.19;101534.03;4929852;28;45323;-86
2021/09/17 05:35:57;;;;;;;;;19.75;16.50;;;;;15.37;73.15;101528.66;4930872;28;45376;-86
2021/09/17 05:38:23;;;;;;;;;18.25;17.25;;;;;15.38;73.29;101526.88;4920962;28;45252;-87
2021/09/17 05:40:48;;;;;;;;;17.75;15.50;;;;;15.46;73.48;101534.53;4921341;28;45469;-86
2021/09/17 05:43:14;;;;;;;;;15.50;15.50;;;;;15.41;73.15;101526.72;4921161;28;45864;-84
2021/09/17 05:45:39;;;;;;;;;14.50;14.00;;;;;15.39;73.37;101523.28;4939728;28;45413;-85
2021/09/17 05:48:05;;;;;;;;;18.50;15.75;;;;;15.42;73.13;101528.47;4939842;28;45484;-82
2021/09/17 05:50:30;;;;;;;;;20.00;18.25;;;;;15.41;73.22;101521.44;4928611;28;45353;-80
2021/09/17 05:52:56;;;;;;;;;17.00;16.00;;;;;15.45;73.48;101530.13;4922304;28;45461;-80
2021/09/17 05:55:26;;;;;;;;;15.25;14.00;;;;;15.47;73.34;101521.19;4927229;28;46443;-81
2021/09/17 05:57:52;;;;;;;;;12.25;10.25;;;;;15.50;73.33;101539.63;4914503;28;45195;-81
2021/09/17 06:00:17;;;;;;;;;19.50;18.50;;;;;15.51;73.21;101530.72;4922285;28;45260;-80
2021/09/17 06:02:44;;;;;;;;;18.50;18.00;;;;;15.48;73.52;101528.19;4904320;28;46174;-80
2021/09/17 06:05:10;;;;;;;;;19.00;16.00;;;;;15.50;73.59;101521.09;4922229;28;46294;-80
2021/09/17 06:07:43;;;;;;;;;16.50;16.00;;;;;15.53;73.58;101541.28;4921213;28;45273;-80
2021/09/17 06:10:09;;;;;;;;;16.50;16.00;;;;;15.52;73.61;101529.81;4921725;28;45523;-81
2021/09/17 06:12:35;;;;;;;;;20.25;16.75;;;;;15.49;73.65;101527.28;4921643;28;45364;-81
2021/09/17 06:15:00;;;;;;;;;23.25;19.25;;;;;15.49;73.90;101522.00;4922064;28;46304;-80
2021/09/17 06:17:26;;;;;;;;;25.75;23.50;;;;;15.52;73.80;101529.81;4930432;28;45392;-83
2021/09/17 06:19:51;;;;;;;;;22.50;19.25;;;;;15.55;73.90;101528.84;4923674;28;45304;-79
2021/09/17 06:22:16;;;;;;;;;23.25;18.75;;;;;15.60;73.82;101533.94;4921932;28;45394;-82
2021/09/17 06:24:42;;;;;;;;;22.25;18.50;;;;;15.61;73.80;101528.56;4920699;28;45401;-85
2021/09/17 06:27:07;;;;;;;;;24.50;19.50;;;;;15.59;74.13;101529.56;4932679;28;45478;-86
2021/09/17 06:29:33;;;;;;;;;27.75;23.00;;;;;15.56;74.20;101517.28;4920412;28;45476;-88
2021/09/17 06:31:58;;;;;;;;;19.50;18.75;;;;;15.64;74.03;101523.16;4922621;28;45322;-92
2021/09/17 06:34:23;;;;;;;;;20.25;19.00;;;;;15.59;74.22;101516.31;4921513;28;45498;-89
2021/09/17 06:36:57;;;;;;;;;19.25;17.50;;;;;15.57;74.28;101507.56;4916147;28;45350;-92
2021/09/17 06:39:22;;;;;;;;;22.75;20.25;;;;;15.61;74.37;101511.78;4921818;28;45471;-88
2021/09/17 06:41:51;;;;;;;;;31.00;21.25;;;;;15.64;74.37;101512.53;4921932;28;45305;-88
2021/09/17 06:44:17;;;;;;;;;21.75;19.25;;;;;15.69;74.32;101511.47;4921396;28;45293;-89
2021/09/17 06:46:43;;;;;;;;;20.25;17.75;;;;;15.75;74.51;101514.72;4921187;28;45359;-95
2021/09/17 06:49:08;;;;;;;;;12.50;12.50;;;;;15.75;74.46;101504.13;4904072;28;45336;-93
2021/09/17 06:51:34;;;;;;;;;24.75;21.75;;;;;15.97;74.20;101526.22;4903544;28;46937;-94
2021/09/17 06:53:59;;;;;;;;;27.75;26.50;;;;;15.98;74.28;101520.84;4907688;28;47121;-91
2021/09/17 06:56:25;;;;;;;;;21.25;18.00;;;;;16.07;74.27;101524.06;4920162;28;45360;-91
2021/09/17 06:58:50;;;;;;;;;18.50;15.00;;;;;16.12;74.16;101518.53;4908814;28;45413;-91
2021/09/17 07:01:15;;;;;;;;;25.00;20.75;;;;;16.17;74.00;101520.03;4904440;28;45997;-80
2021/09/17 07:03:41;;;;;;;;;20.25;19.25;;;;;16.17;73.96;101513.91;4925538;28;46561;-80
2021/09/17 07:06:06;;;;;;;;;22.25;20.25;;;;;16.19;74.32;101512.91;4935434;28;45453;-84
2021/09/17 07:08:32;;;;;;;;;22.50;17.25;;;;;16.22;74.19;101511.03;4940899;28;45334;-86
2021/09/17 07:10:57;;;;;;;;;18.75;18.75;;;;;16.26;74.19;101509.97;4922189;28;45329;-83
2021/09/17 07:13:23;;;;;;;;;20.25;19.25;;;;;16.23;74.41;101496.84;4922071;28;46392;-83
2021/09/17 07:15:48;;;;;;;;;21.00;17.50;;;;;16.31;74.34;101505.31;4920499;28;45337;-83
2021/09/17 07:18:15;;;;;;;;;11.75;10.50;;;;;16.37;74.26;101498.88;4920041;28;45558;-78
2021/09/17 07:20:41;;;;;;;;;14.00;11.75;;;;;16.54;74.07;101512.22;4906684;28;45477;-78
2021/09/17 07:23:08;;;;;;;;;12.50;11.50;;;;;16.67;74.16;101505.50;4924476;28;45578;-78
2021/09/17 07:25:34;;;;;;;;;23.25;21.75;;;;;16.71;73.72;101496.44;4905271;28;46500;-78
2021/09/17 07:28:00;;;;;;;;;24.50;22.75;;;;;16.85;73.42;101501.97;4924536;28;45389;-78
2021/09/17 07:30:26;;;;;;;;;27.50;22.50;;;;;16.95;73.28;101507.69;4923931;28;45500;-78
2021/09/17 07:32:52;;;;;;;;;26.25;24.00;;;;;16.98;72.74;101504.03;4922213;28;45521;-78
2021/09/17 07:35:18;;;;;;;;;19.00;14.25;;;;;17.02;73.02;101500.28;4919763;28;45383;-78
2021/09/17 07:37:45;;;;;;;;;22.00;21.25;;;;;17.06;72.39;101496.53;4918389;28;45421;-78
2021/09/17 07:40:13;;;;;;;;;21.75;21.50;;;;;17.14;72.38;101514.75;4924358;28;45395;-77
2021/09/17 07:42:40;;;;;;;;;20.25;17.75;;;;;17.14;72.55;101509.44;4924297;28;45536;-79
2021/09/17 07:45:06;;;;;;;;;24.75;20.75;;;;;17.19;72.56;101510.13;4923665;28;45746;-79
2021/09/17 07:47:32;;;;;;;;;22.75;20.25;;;;;17.21;72.93;101507.41;4924000;28;45417;-79
2021/09/17 07:49:58;;;;;;;;;19.25;14.50;;;;;17.25;72.54;101516.06;4925959;28;45524;-79
2021/09/17 07:52:24;;;;;;;;;16.00;14.75;;;;;17.30;72.46;101516.72;4926750;28;45706;-79
2021/09/17 07:54:49;;;;;;;;;12.25;10.75;;;;;17.37;72.47;101511.94;4924359;28;45398;-79
2021/09/17 07:57:14;;;;;;;;;13.50;11.25;;;;;17.46;72.14;101508.81;4921763;28;45363;-79
2021/09/17 07:59:40;;;;;;;;;16.25;16.25;;;;;17.57;71.72;101510.09;4923786;28;45638;-79
2021/09/17 08:02:06;;;;;;;;;11.50;11.00;;;;;17.67;71.44;101500.72;4925513;28;45430;-79
2021/09/17 08:04:31;;;;;;;;;15.00;14.25;;;;;17.75;71.35;101509.13;4925725;28;45362;-79
2021/09/17 08:06:57;;;;;;;;;16.00;14.00;;;;;17.76;71.15;101507.34;4924154;28;45414;-79
2021/09/17 08:09:22;;;;;;;;;17.75;15.75;;;;;17.77;70.73;101507.28;4904784;28;45567;-79
2021/09/17 08:11:48;;;;;;;;;12.75;12.25;;;;;17.81;71.33;101509.75;4922832;28;45705;-79
2021/09/17 08:14:13;;;;;;;;;19.50;18.75;;;;;17.86;71.11;101499.75;4926232;28;45218;-92
2021/09/17 08:16:38;;;;;;;;;23.25;20.25;;;;;17.87;71.06;101501.50;4926077;28;45237;-79
2021/09/17 08:19:04;;;;;;;;;23.25;20.00;;;;;17.94;70.81;101505.53;4923512;28;45436;-79
2021/09/17 08:21:30;;;;;;;;;19.50;16.75;;;;;17.99;71.05;101505.31;4940601;28;45569;-79
2021/09/17 08:23:55;;;;;;;;;16.00;11.75;;;;;18.00;70.78;101507.03;4940256;28;45293;-79
2021/09/17 08:26:21;;;;;;;;;20.00;18.00;;;;;18.00;70.36;101499.06;4905649;28;45436;-79
2021/09/17 08:28:46;;;;;;;;;18.25;18.25;;;;;18.06;70.52;101503.16;4923448;28;45346;-79
2021/09/17 08:31:12;;;;;;;;;21.50;16.00;;;;;18.15;69.79;101510.66;4922443;28;45347;-79
2021/09/17 08:33:37;;;;;;;;;11.00;10.25;;;;;18.17;69.97;101508.81;4923103;28;45598;-79
2021/09/17 08:36:03;;;;;;;;;15.25;15.25;;;;;18.28;69.74;101518.88;4923433;28;45332;-79
2021/09/17 08:38:29;;;;;;;;;19.25;18.00;;;;;18.29;69.24;101506.44;4923450;28;45457;-79
2021/09/17 08:40:57;;;;;;;;;11.50;11.00;;;;;18.34;69.50;101512.38;4926296;28;45461;-79
2021/09/17 08:43:23;;;;;;;;;8.00;8.00;;;;;18.37;69.31;101498.06;4942956;28;45539;-79
2021/09/17 08:45:50;;;;;;;;;14.00;14.00;;;;;18.44;68.91;101499.44;4925750;28;45178;-78
2021/09/17 08:48:16;;;;;;;;;12.75;12.75;;;;;18.52;68.53;101501.69;4921258;28;45718;-79
2021/09/17 08:50:43;;;;;;;;;13.50;11.50;;;;;18.52;68.05;101504.34;4921630;28;45401;-79
2021/09/17 08:53:10;;;;;;;;;11.00;10.50;;;;;18.57;68.64;101498.78;4921838;28;45411;-79
2021/09/17 08:55:35;;;;;;;;;10.50;9.50;;;;;18.62;68.38;101507.38;4922683;28;45349;-79
2021/09/17 08:58:00;;;;;;;;;11.75;11.25;;;;;18.74;68.56;101500.50;4928809;28;45417;-78
2021/09/17 09:00:26;;;;;;;;;10.50;10.25;;;;;18.84;67.69;101496.34;4922924;28;45445;-78
2021/09/17 09:02:54;;;;;;;;;13.00;11.75;;;;;18.90;67.71;101497.81;4929071;28;45397;-78
2021/09/17 09:05:28;;;;;;;;;8.75;7.75;;;;;18.98;67.38;101500.06;4924263;28;45452;-78
2021/09/17 09:07:54;;;;;;;;;13.25;9.00;;;;;19.03;66.92;101495.31;4922334;28;45851;-78
2021/09/17 09:10:20;;;;;;;;;11.00;11.00;;;;;19.11;66.94;101497.56;4922083;28;45310;-78
2021/09/17 09:12:51;;;;;;;;;13.25;11.25;;;;;19.17;66.13;101493.66;4941341;28;45712;-78
2021/09/17 09:15:18;;;;;;;;;8.00;8.00;;;;;19.28;66.28;101503.75;4940849;28;45468;-79
2021/09/17 09:17:45;;;;;;;;;10.25;9.50;;;;;19.28;66.18;101491.28;4923769;28;45428;-78
2021/09/17 09:20:33;;;;;;;;;15.00;13.00;;;;;19.36;66.11;101495.31;4921662;28;45512;-78
2021/09/17 09:23:19;;;;;;;;;7.00;6.75;;;;;19.39;65.47;101497.75;4922224;28;45656;-78
2021/09/17 09:25:59;;;;;;;;;12.50;10.00;;;;;19.40;65.42;101492.38;4921857;28;45753;-78
2021/09/17 09:28:33;;;;;;;;;12.75;8.75;;;;;19.42;65.29;101489.59;4922619;28;45430;-78
2021/09/17 09:31:12;;;;;;;;;10.75;7.25;;;;;19.43;65.21;101492.16;4941901;28;46332;-78
2021/09/17 09:33:37;;;;;;;;;8.75;7.00;;;;;19.49;65.59;101488.28;4928414;28;45405;-78
2021/09/17 09:36:22;;;;;;;;;12.25;11.50;;;;;19.49;65.16;101476.75;4922214;28;45461;-77
2021/09/17 09:38:49;;;;;;;;;10.75;8.00;;;;;19.55;65.08;101487.94;4921659;28;45505;-77
2021/09/17 09:41:26;;;;;;;;;8.75;7.75;;;;;19.54;65.16;101478.22;4917868;28;45418;-77
2021/09/17 09:44:16;;;;;;;;;11.50;9.25;;;;;19.61;64.67;101477.81;4904267;28;45290;-77
2021/09/17 09:46:46;;;;;;;;;8.25;8.25;;;;;19.67;64.68;101480.16;4911752;28;45474;-78
2021/09/17 09:49:15;;;;;;;;;8.25;8.25;;;;;19.70;64.62;101481.78;4923290;28;45357;-78
2021/09/17 09:52:00;;;;;;;;;9.00;9.00;;;;;19.74;64.67;101477.94;4922141;28;45557;-78
2021/09/17 09:54:28;;;;;;;;;6.50;5.75;;;;;19.72;63.14;101478.06;4921508;28;45340;-78
2021/09/17 09:56:54;;;;;;;;;8.25;8.25;;;;;19.75;63.80;101477.88;4922354;28;45350;-78
2021/09/17 09:59:24;;;;;;;;;10.75;8.75;;;;;19.76;64.03;101473.38;4921721;28;45380;-78
2021/09/17 10:01:50;;;;;;;;;7.00;7.00;;;;;19.81;64.19;101479.28;4922038;28;45563;-78
2021/09/17 10:04:16;;;;;;;;;6.50;6.50;;;;;19.76;63.56;101468.91;4921517;28;45290;-77
2021/09/17 10:06:43;;;;;;;;;8.50;6.50;;;;;19.81;63.88;101462.44;4922243;28;45427;-77
2021/09/17 10:09:10;;;;;;;;;6.00;6.00;;;;;19.90;63.34;101472.56;4921481;28;45466;-77
2021/09/17 10:11:38;;;;;;;;;8.50;7.00;;;;;19.90;63.07;101464.56;4904774;28;46517;-77
2021/09/17 10:14:07;;;;;;;;;7.50;6.50;;;;;19.95;62.95;101451.75;4920683;28;45248;-77
2021/09/17 10:16:33;;;;;;;;;6.75;6.50;;;;;20.04;62.92;101461.03;4922150;28;45873;-77
2021/09/17 10:18:59;;;;;;;;;6.75;6.75;;;;;20.04;62.78;101453.03;4931986;28;45389;-77
2021/09/17 10:21:48;;;;;;;;;7.75;7.50;;;;;20.11;62.52;101453.53;4940775;28;45263;-78
2021/09/17 10:24:26;;;;;;;;;10.25;8.75;;;;;20.15;62.45;101455.03;4926919;28;45852;-77
2021/09/17 10:27:01;;;;;;;;;8.25;6.75;;;;;20.16;62.27;101456.75;4921235;28;45461;-77
2021/09/17 10:29:57;;;;;;;;;8.75;8.75;;;;;20.20;61.50;101452.94;4934152;28;45361;-77
2021/09/17 10:32:43;;;;;;;;;9.00;8.00;;;;;20.21;60.85;101454.66;4920196;28;45468;-77
2021/09/17 10:35:12;;;;;;;;;6.50;5.75;;;;;20.24;62.03;101457.16;4920831;28;45428;-77
2021/09/17 10:38:24;;;;;;;;;8.25;8.25;;;;;20.26;60.85;101457.03;4916884;28;45376;-78
2021/09/17 10:40:54;;;;;;;;;8.75;6.25;;;;;20.22;61.14;101444.84;4904566;28;45428;-77
2021/09/17 10:43:24;;;;;;;;;7.75;7.75;;;;;20.29;61.65;101442.66;4924038;28;46304;-77
2021/09/17 10:45:54;;;;;;;;;8.25;7.00;;;;;20.32;61.84;101447.81;4928383;28;45483;-77
2021/09/17 10:48:23;;;;;;;;;7.50;5.25;;;;;20.34;61.49;101445.88;4940465;28;45360;-78
2021/09/17 10:51:03;;;;;;;;;6.50;6.50;;;;;20.39;60.98;101446.47;4924457;28;45405;-77
2021/09/17 10:53:41;;;;;;;;;6.00;6.00;;;;;20.48;61.41;101447.66;4922382;28;45343;-77
2021/09/17 10:56:11;;;;;;;;;7.00;6.00;;;;;20.51;60.59;101447.47;4925580;28;45515;-77
2021/09/17 10:58:38;;;;;;;;;4.50;4.50;;;;;20.53;60.92;101442.03;4918555;28;45555;-77
2021/09/17 11:01:06;;;;;;;;;7.25;7.25;;;;;20.58;60.56;101440.78;4920545;28;45514;-77
2021/09/17 11:03:40;;;;;;;;;6.50;6.00;;;;;20.61;60.56;101441.53;4906513;28;47008;-77
2021/09/17 11:06:35;;;;;;;;;7.25;7.25;;;;;20.59;60.40;101441.66;4907219;28;45528;-77
2021/09/17 11:09:05;;;;;;;;;6.00;6.00;;;;;20.58;59.86;101435.44;4908885;28;45607;-77
2021/09/17 11:11:43;;;;;;;;;7.75;6.00;;;;;20.58;60.10;101424.75;4934445;28;45440;-78